sensor_id;sensor_type;location;lat;lon;timestamp;P1;durP1;ratioP1;P2;durP2;ratioP2
62554;SDS011;48610;52.144;8.624;2023-07-31T00:00:45;8.88;;;3.60;;
62554;SDS011;48610;52.144;8.624;2023-07-31T00:03:46;9.95;;;3.55;;
62554;SDS011;48610;52.144;8.624;2023-07-31T00:06:47;5.93;;;3.67;;
62554;SDS011;48610;52.144;8.624;2023-07-31T00:09:48;9.18;;;2.90;;
62554;SDS011;48610;52.144;8.624;2023-07-31T00:12:49;5.35;;;2.65;;
62554;SDS011;48610;52.144;8.624;2023-07-31T00:15:49;6.35;;;2.70;;
62554;SDS011;48610;52.144;8.624;2023-07-31T00:18:50;3.15;;;2.53;;
62554;SDS011;48610;52.144;8.624;2023-07-31T00:21:50;4.35;;;2.45;;
62554;SDS011;48610;52.144;8.624;2023-07-31T00:24:51;3.28;;;2.28;;
62554;SDS011;48610;52.144;8.624;2023-07-31T00:27:52;8.77;;;2.47;;
62554;SDS011;48610;52.144;8.624;2023-07-31T00:30:52;3.22;;;2.58;;
62554;SDS011;48610;52.144;8.624;2023-07-31T00:33:53;11.48;;;2.70;;
62554;SDS011;48610;52.144;8.624;2023-07-31T00:36:53;6.82;;;2.90;;
62554;SDS011;48610;52.144;8.624;2023-07-31T00:39:54;3.70;;;2.72;;
62554;SDS011;48610;52.144;8.624;2023-07-31T00:42:55;3.70;;;3.03;;
62554;SDS011;48610;52.144;8.624;2023-07-31T00:45:55;5.28;;;2.97;;
62554;SDS011;48610;52.144;8.624;2023-07-31T00:48:56;3.83;;;3.00;;
62554;SDS011;48610;52.144;8.624;2023-07-31T00:51:57;6.50;;;3.50;;
62554;SDS011;48610;52.144;8.624;2023-07-31T00:54:58;6.88;;;3.47;;
62554;SDS011;48610;52.144;8.624;2023-07-31T00:57:59;6.22;;;3.97;;
62554;SDS011;48610;52.144;8.624;2023-07-31T01:00:59;6.00;;;4.10;;
62554;SDS011;48610;52.144;8.624;2023-07-31T01:04:00;5.57;;;4.15;;
62554;SDS011;48610;52.144;8.624;2023-07-31T01:07:08;6.90;;;4.18;;
62554;SDS011;48610;52.144;8.624;2023-07-31T01:10:23;5.65;;;4.22;;
62554;SDS011;48610;52.144;8.624;2023-07-31T01:13:30;7.53;;;4.43;;
62554;SDS011;48610;52.144;8.624;2023-07-31T01:16:31;10.13;;;5.43;;
62554;SDS011;48610;52.144;8.624;2023-07-31T01:19:31;8.50;;;5.97;;
62554;SDS011;48610;52.144;8.624;2023-07-31T01:28:56;9.73;;;5.90;;
62554;SDS011;48610;52.144;8.624;2023-07-31T01:32:03;10.73;;;5.93;;
62554;SDS011;48610;52.144;8.624;2023-07-31T01:35:06;9.48;;;5.68;;
62554;SDS011;48610;52.144;8.624;2023-07-31T01:38:08;8.02;;;5.32;;
62554;SDS011;48610;52.144;8.624;2023-07-31T01:41:08;7.88;;;5.22;;
62554;SDS011;48610;52.144;8.624;2023-07-31T01:44:09;7.65;;;4.85;;
62554;SDS011;48610;52.144;8.624;2023-07-31T01:47:09;6.78;;;4.88;;
62554;SDS011;48610;52.144;8.624;2023-07-31T01:50:10;5.97;;;4.22;;
62554;SDS011;48610;52.144;8.624;2023-07-31T01:53:11;7.43;;;4.45;;
62554;SDS011;48610;52.144;8.624;2023-07-31T01:56:12;6.50;;;3.65;;
62554;SDS011;48610;52.144;8.624;2023-07-31T01:59:13;7.13;;;3.92;;
62554;SDS011;48610;52.144;8.624;2023-07-31T02:02:13;5.93;;;3.72;;
62554;SDS011;48610;52.144;8.624;2023-07-31T02:05:14;8.20;;;3.65;;
62554;SDS011;48610;52.144;8.624;2023-07-31T02:08:15;7.47;;;3.60;;
62554;SDS011;48610;52.144;8.624;2023-07-31T02:11:16;7.97;;;3.40;;
62554;SDS011;48610;52.144;8.624;2023-07-31T02:14:16;6.82;;;3.75;;
62554;SDS011;48610;52.144;8.624;2023-07-31T02:17:17;5.07;;;3.15;;
62554;SDS011;48610;52.144;8.624;2023-07-31T02:20:18;7.07;;;3.50;;
62554;SDS011;48610;52.144;8.624;2023-07-31T02:23:19;10.30;;;3.42;;
62554;SDS011;48610;52.144;8.624;2023-07-31T02:26:19;7.95;;;3.75;;
62554;SDS011;48610;52.144;8.624;2023-07-31T02:29:20;12.48;;;3.65;;
62554;SDS011;48610;52.144;8.624;2023-07-31T02:32:21;7.88;;;4.00;;
62554;SDS011;48610;52.144;8.624;2023-07-31T02:35:21;11.75;;;3.38;;
62554;SDS011;48610;52.144;8.624;2023-07-31T02:38:22;10.75;;;3.47;;
62554;SDS011;48610;52.144;8.624;2023-07-31T02:41:23;5.30;;;3.25;;
62554;SDS011;48610;52.144;8.624;2023-07-31T02:44:23;7.43;;;3.10;;
62554;SDS011;48610;52.144;8.624;2023-07-31T02:47:24;7.35;;;3.10;;
62554;SDS011;48610;52.144;8.624;2023-07-31T02:50:24;6.53;;;3.65;;
62554;SDS011;48610;52.144;8.624;2023-07-31T02:53:25;9.05;;;3.20;;
62554;SDS011;48610;52.144;8.624;2023-07-31T02:56:26;6.50;;;3.38;;
62554;SDS011;48610;52.144;8.624;2023-07-31T02:59:27;6.85;;;3.35;;
62554;SDS011;48610;52.144;8.624;2023-07-31T03:02:28;5.82;;;3.35;;
62554;SDS011;48610;52.144;8.624;2023-07-31T03:05:28;3.83;;;2.47;;
62554;SDS011;48610;52.144;8.624;2023-07-31T03:08:29;4.72;;;2.55;;
62554;SDS011;48610;52.144;8.624;2023-07-31T03:11:30;3.88;;;2.53;;
62554;SDS011;48610;52.144;8.624;2023-07-31T03:14:30;6.32;;;2.50;;
62554;SDS011;48610;52.144;8.624;2023-07-31T03:17:31;7.10;;;2.88;;
62554;SDS011;48610;52.144;8.624;2023-07-31T03:20:32;3.92;;;2.50;;
62554;SDS011;48610;52.144;8.624;2023-07-31T03:23:32;5.38;;;2.50;;
62554;SDS011;48610;52.144;8.624;2023-07-31T03:26:33;4.40;;;2.50;;
62554;SDS011;48610;52.144;8.624;2023-07-31T03:29:34;3.72;;;2.10;;
62554;SDS011;48610;52.144;8.624;2023-07-31T03:32:34;1.77;;;1.58;;
62554;SDS011;48610;52.144;8.624;2023-07-31T03:35:35;3.70;;;2.00;;
62554;SDS011;48610;52.144;8.624;2023-07-31T03:38:35;3.40;;;2.10;;
62554;SDS011;48610;52.144;8.624;2023-07-31T03:41:36;5.55;;;3.10;;
62554;SDS011;48610;52.144;8.624;2023-07-31T03:44:37;5.57;;;3.35;;
62554;SDS011;48610;52.144;8.624;2023-07-31T03:47:37;8.27;;;4.40;;
62554;SDS011;48610;52.144;8.624;2023-07-31T03:50:38;14.73;;;5.32;;
62554;SDS011;48610;52.144;8.624;2023-07-31T03:53:39;23.20;;;7.80;;
62554;SDS011;48610;52.144;8.624;2023-07-31T03:56:39;23.65;;;8.13;;
62554;SDS011;48610;52.144;8.624;2023-07-31T03:59:40;20.17;;;8.98;;
62554;SDS011;48610;52.144;8.624;2023-07-31T04:02:41;30.30;;;11.18;;
62554;SDS011;48610;52.144;8.624;2023-07-31T04:05:41;29.70;;;11.82;;
62554;SDS011;48610;52.144;8.624;2023-07-31T04:08:42;27.88;;;12.18;;
62554;SDS011;48610;52.144;8.624;2023-07-31T04:11:43;32.95;;;12.23;;
62554;SDS011;48610;52.144;8.624;2023-07-31T04:14:43;44.50;;;14.55;;
62554;SDS011;48610;52.144;8.624;2023-07-31T04:17:44;30.58;;;15.15;;
62554;SDS011;48610;52.144;8.624;2023-07-31T04:20:44;32.78;;;13.90;;
62554;SDS011;48610;52.144;8.624;2023-07-31T04:23:45;46.50;;;15.93;;
62554;SDS011;48610;52.144;8.624;2023-07-31T04:26:46;33.17;;;15.55;;
62554;SDS011;48610;52.144;8.624;2023-07-31T04:29:46;47.50;;;15.80;;
62554;SDS011;48610;52.144;8.624;2023-07-31T04:32:47;33.80;;;15.65;;
62554;SDS011;48610;52.144;8.624;2023-07-31T04:35:54;37.88;;;15.18;;
62554;SDS011;48610;52.144;8.624;2023-07-31T04:38:54;47.28;;;16.17;;
62554;SDS011;48610;52.144;8.624;2023-07-31T04:41:55;52.50;;;17.33;;
62554;SDS011;48610;52.144;8.624;2023-07-31T04:44:56;41.30;;;14.73;;
62554;SDS011;48610;52.144;8.624;2023-07-31T04:47:56;41.50;;;15.93;;
62554;SDS011;48610;52.144;8.624;2023-07-31T04:50:57;42.55;;;15.65;;
62554;SDS011;48610;52.144;8.624;2023-07-31T04:53:57;38.78;;;14.85;;
62554;SDS011;48610;52.144;8.624;2023-07-31T04:56:58;36.15;;;15.73;;
62554;SDS011;48610;52.144;8.624;2023-07-31T04:59:59;41.30;;;16.30;;
62554;SDS011;48610;52.144;8.624;2023-07-31T05:02:59;51.75;;;15.82;;
62554;SDS011;48610;52.144;8.624;2023-07-31T05:06:00;51.47;;;16.20;;
62554;SDS011;48610;52.144;8.624;2023-07-31T05:09:01;38.20;;;16.15;;
62554;SDS011;48610;52.144;8.624;2023-07-31T05:12:01;49.05;;;17.00;;
62554;SDS011;48610;52.144;8.624;2023-07-31T05:15:04;53.13;;;17.95;;
62554;SDS011;48610;52.144;8.624;2023-07-31T05:18:05;40.05;;;16.60;;
62554;SDS011;48610;52.144;8.624;2023-07-31T05:21:06;63.30;;;17.20;;
62554;SDS011;48610;52.144;8.624;2023-07-31T05:24:07;48.70;;;17.30;;
62554;SDS011;48610;52.144;8.624;2023-07-31T05:27:07;51.35;;;16.73;;
62554;SDS011;48610;52.144;8.624;2023-07-31T05:30:09;66.07;;;16.02;;
62554;SDS011;48610;52.144;8.624;2023-07-31T05:33:10;60.17;;;15.70;;
62554;SDS011;48610;52.144;8.624;2023-07-31T05:36:11;53.22;;;15.25;;
62554;SDS011;48610;52.144;8.624;2023-07-31T05:39:11;64.30;;;16.60;;
62554;SDS011;48610;52.144;8.624;2023-07-31T05:42:12;56.95;;;15.63;;
62554;SDS011;48610;52.144;8.624;2023-07-31T05:45:12;45.50;;;14.85;;
62554;SDS011;48610;52.144;8.624;2023-07-31T05:48:13;42.78;;;14.15;;
62554;SDS011;48610;52.144;8.624;2023-07-31T05:51:14;49.50;;;13.73;;
62554;SDS011;48610;52.144;8.624;2023-07-31T05:54:15;50.22;;;13.43;;
62554;SDS011;48610;52.144;8.624;2023-07-31T05:57:15;37.50;;;11.15;;
62554;SDS011;48610;52.144;8.624;2023-07-31T06:00:16;50.38;;;12.95;;
62554;SDS011;48610;52.144;8.624;2023-07-31T06:03:17;56.42;;;12.25;;
62554;SDS011;48610;52.144;8.624;2023-07-31T06:06:17;41.40;;;11.70;;
62554;SDS011;48610;52.144;8.624;2023-07-31T06:09:18;43.42;;;11.48;;
62554;SDS011;48610;52.144;8.624;2023-07-31T06:12:20;45.75;;;11.52;;
62554;SDS011;48610;52.144;8.624;2023-07-31T06:15:21;44.70;;;11.85;;
62554;SDS011;48610;52.144;8.624;2023-07-31T06:18:24;44.33;;;11.77;;
62554;SDS011;48610;52.144;8.624;2023-07-31T06:21:25;37.97;;;11.38;;
62554;SDS011;48610;52.144;8.624;2023-07-31T06:24:27;54.00;;;12.68;;
62554;SDS011;48610;52.144;8.624;2023-07-31T06:27:28;43.40;;;12.23;;
62554;SDS011;48610;52.144;8.624;2023-07-31T06:30:29;32.17;;;10.98;;
62554;SDS011;48610;52.144;8.624;2023-07-31T06:33:29;46.53;;;11.50;;
62554;SDS011;48610;52.144;8.624;2023-07-31T06:36:30;47.38;;;12.23;;
62554;SDS011;48610;52.144;8.624;2023-07-31T06:39:31;51.22;;;11.15;;
62554;SDS011;48610;52.144;8.624;2023-07-31T06:42:32;36.83;;;11.27;;
62554;SDS011;48610;52.144;8.624;2023-07-31T06:45:33;43.47;;;10.75;;
62554;SDS011;48610;52.144;8.624;2023-07-31T06:48:36;37.38;;;10.38;;
62554;SDS011;48610;52.144;8.624;2023-07-31T06:51:37;48.03;;;11.60;;
62554;SDS011;48610;52.144;8.624;2023-07-31T06:54:38;40.97;;;11.00;;
62554;SDS011;48610;52.144;8.624;2023-07-31T06:57:39;35.92;;;10.70;;
62554;SDS011;48610;52.144;8.624;2023-07-31T07:00:39;35.65;;;10.55;;
62554;SDS011;48610;52.144;8.624;2023-07-31T07:03:40;46.25;;;11.00;;
62554;SDS011;48610;52.144;8.624;2023-07-31T07:06:40;35.28;;;12.38;;
62554;SDS011;48610;52.144;8.624;2023-07-31T07:09:42;42.38;;;10.95;;
62554;SDS011;48610;52.144;8.624;2023-07-31T07:12:43;57.35;;;12.02;;
62554;SDS011;48610;52.144;8.624;2023-07-31T07:15:47;37.58;;;10.95;;
62554;SDS011;48610;52.144;8.624;2023-07-31T07:21:49;38.60;;;11.07;;
62554;SDS011;48610;52.144;8.624;2023-07-31T07:24:50;41.53;;;10.60;;
62554;SDS011;48610;52.144;8.624;2023-07-31T07:27:50;35.78;;;11.07;;
62554;SDS011;48610;52.144;8.624;2023-07-31T07:30:54;43.20;;;11.27;;
62554;SDS011;48610;52.144;8.624;2023-07-31T07:33:55;47.97;;;11.38;;
62554;SDS011;48610;52.144;8.624;2023-07-31T07:36:57;37.10;;;11.30;;
62554;SDS011;48610;52.144;8.624;2023-07-31T07:39:57;59.28;;;12.85;;
62554;SDS011;48610;52.144;8.624;2023-07-31T07:42:58;37.78;;;11.30;;
62554;SDS011;48610;52.144;8.624;2023-07-31T07:46:01;50.10;;;13.48;;
62554;SDS011;48610;52.144;8.624;2023-07-31T07:49:02;43.63;;;13.27;;
62554;SDS011;48610;52.144;8.624;2023-07-31T07:52:03;42.13;;;13.80;;
62554;SDS011;48610;52.144;8.624;2023-07-31T07:55:04;43.47;;;13.80;;
62554;SDS011;48610;52.144;8.624;2023-07-31T07:58:04;39.90;;;14.65;;
62554;SDS011;48610;52.144;8.624;2023-07-31T08:01:05;46.58;;;15.48;;
62554;SDS011;48610;52.144;8.624;2023-07-31T08:04:06;43.47;;;15.10;;
62554;SDS011;48610;52.144;8.624;2023-07-31T08:07:06;49.15;;;13.95;;
62554;SDS011;48610;52.144;8.624;2023-07-31T08:10:07;47.50;;;12.82;;
62554;SDS011;48610;52.144;8.624;2023-07-31T08:13:09;42.45;;;13.43;;
62554;SDS011;48610;52.144;8.624;2023-07-31T08:16:11;39.97;;;13.05;;
62554;SDS011;48610;52.144;8.624;2023-07-31T08:19:12;41.50;;;13.63;;
62554;SDS011;48610;52.144;8.624;2023-07-31T08:22:15;36.05;;;12.32;;
62554;SDS011;48610;52.144;8.624;2023-07-31T08:25:16;33.55;;;12.20;;
62554;SDS011;48610;52.144;8.624;2023-07-31T08:28:17;32.90;;;12.35;;
62554;SDS011;48610;52.144;8.624;2023-07-31T08:31:18;43.55;;;12.27;;
62554;SDS011;48610;52.144;8.624;2023-07-31T08:34:19;29.55;;;10.02;;
62554;SDS011;48610;52.144;8.624;2023-07-31T08:37:19;32.80;;;10.48;;
62554;SDS011;48610;52.144;8.624;2023-07-31T08:40:20;30.38;;;9.93;;
62554;SDS011;48610;52.144;8.624;2023-07-31T08:43:21;23.33;;;9.13;;
62554;SDS011;48610;52.144;8.624;2023-07-31T08:46:26;17.23;;;8.40;;
62554;SDS011;48610;52.144;8.624;2023-07-31T08:49:27;18.42;;;8.60;;
62554;SDS011;48610;52.144;8.624;2023-07-31T08:52:29;25.77;;;8.18;;
62554;SDS011;48610;52.144;8.624;2023-07-31T08:55:29;21.95;;;8.88;;
62554;SDS011;48610;52.144;8.624;2023-07-31T08:58:32;39.17;;;9.77;;
62554;SDS011;48610;52.144;8.624;2023-07-31T09:01:37;19.90;;;8.77;;
62554;SDS011;48610;52.144;8.624;2023-07-31T09:04:43;22.30;;;7.82;;
62554;SDS011;48610;52.144;8.624;2023-07-31T09:07:45;16.85;;;8.65;;
62554;SDS011;48610;52.144;8.624;2023-07-31T09:10:49;24.40;;;9.27;;
62554;SDS011;48610;52.144;8.624;2023-07-31T09:13:50;23.15;;;8.60;;
62554;SDS011;48610;52.144;8.624;2023-07-31T09:16:53;25.23;;;9.30;;
62554;SDS011;48610;52.144;8.624;2023-07-31T09:19:55;20.20;;;9.05;;
62554;SDS011;48610;52.144;8.624;2023-07-31T09:22:55;34.08;;;8.27;;
62554;SDS011;48610;52.144;8.624;2023-07-31T09:25:56;19.48;;;7.25;;
62554;SDS011;48610;52.144;8.624;2023-07-31T09:28:57;19.27;;;7.82;;
62554;SDS011;48610;52.144;8.624;2023-07-31T09:31:59;17.60;;;7.68;;
62554;SDS011;48610;52.144;8.624;2023-07-31T09:35:00;19.00;;;8.30;;
62554;SDS011;48610;52.144;8.624;2023-07-31T09:38:03;17.90;;;7.85;;
62554;SDS011;48610;52.144;8.624;2023-07-31T09:41:06;22.00;;;8.60;;
62554;SDS011;48610;52.144;8.624;2023-07-31T09:44:08;27.35;;;8.82;;
62554;SDS011;48610;52.144;8.624;2023-07-31T09:47:44;24.02;;;8.63;;
62554;SDS011;48610;52.144;8.624;2023-07-31T09:50:36;21.42;;;8.40;;
62554;SDS011;48610;52.144;8.624;2023-07-31T09:53:38;18.50;;;8.65;;
62554;SDS011;48610;52.144;8.624;2023-07-31T09:56:41;23.42;;;8.80;;
62554;SDS011;48610;52.144;8.624;2023-07-31T09:59:47;24.60;;;8.65;;
62554;SDS011;48610;52.144;8.624;2023-07-31T10:02:49;21.83;;;9.05;;
62554;SDS011;48610;52.144;8.624;2023-07-31T10:05:52;21.63;;;8.13;;
62554;SDS011;48610;52.144;8.624;2023-07-31T10:08:55;30.13;;;9.00;;
62554;SDS011;48610;52.144;8.624;2023-07-31T10:12:00;23.73;;;8.05;;
62554;SDS011;48610;52.144;8.624;2023-07-31T10:15:05;15.48;;;7.85;;
62554;SDS011;48610;52.144;8.624;2023-07-31T10:18:08;21.58;;;8.25;;
62554;SDS011;48610;52.144;8.624;2023-07-31T10:21:10;24.17;;;9.18;;
62554;SDS011;48610;52.144;8.624;2023-07-31T10:24:11;32.47;;;7.95;;
62554;SDS011;48610;52.144;8.624;2023-07-31T10:27:12;26.60;;;8.02;;
62554;SDS011;48610;52.144;8.624;2023-07-31T10:30:17;15.50;;;6.13;;
62554;SDS011;48610;52.144;8.624;2023-07-31T10:33:20;13.40;;;5.97;;
62554;SDS011;48610;52.144;8.624;2023-07-31T10:36:21;14.50;;;6.15;;
62554;SDS011;48610;52.144;8.624;2023-07-31T10:39:35;12.70;;;6.35;;
62554;SDS011;48610;52.144;8.624;2023-07-31T10:42:37;19.03;;;6.53;;
62554;SDS011;48610;52.144;8.624;2023-07-31T10:45:45;13.88;;;6.30;;
62554;SDS011;48610;52.144;8.624;2023-07-31T10:48:47;11.05;;;5.35;;
62554;SDS011;48610;52.144;8.624;2023-07-31T10:52:03;8.38;;;4.80;;
62554;SDS011;48610;52.144;8.624;2023-07-31T10:55:23;9.55;;;4.32;;
62554;SDS011;48610;52.144;8.624;2023-07-31T10:58:31;12.20;;;4.72;;
62554;SDS011;48610;52.144;8.624;2023-07-31T11:01:52;7.47;;;3.90;;
62554;SDS011;48610;52.144;8.624;2023-07-31T11:05:06;7.68;;;4.35;;
62554;SDS011;48610;52.144;8.624;2023-07-31T11:08:11;14.02;;;4.63;;
62554;SDS011;48610;52.144;8.624;2023-07-31T11:11:15;9.73;;;5.13;;
62554;SDS011;48610;52.144;8.624;2023-07-31T11:14:17;9.30;;;4.40;;
62554;SDS011;48610;52.144;8.624;2023-07-31T11:17:18;10.88;;;5.20;;
62554;SDS011;48610;52.144;8.624;2023-07-31T11:20:19;14.55;;;5.07;;
62554;SDS011;48610;52.144;8.624;2023-07-31T11:23:19;9.25;;;4.65;;
62554;SDS011;48610;52.144;8.624;2023-07-31T11:26:22;8.80;;;4.68;;
62554;SDS011;48610;52.144;8.624;2023-07-31T11:29:26;8.82;;;4.40;;
62554;SDS011;48610;52.144;8.624;2023-07-31T11:32:27;10.85;;;5.03;;
62554;SDS011;48610;52.144;8.624;2023-07-31T11:35:29;11.65;;;4.57;;
62554;SDS011;48610;52.144;8.624;2023-07-31T11:38:32;7.57;;;4.63;;
62554;SDS011;48610;52.144;8.624;2023-07-31T11:41:33;12.45;;;4.97;;
62554;SDS011;48610;52.144;8.624;2023-07-31T11:44:38;7.68;;;4.32;;
62554;SDS011;48610;52.144;8.624;2023-07-31T11:47:41;13.15;;;5.32;;
62554;SDS011;48610;52.144;8.624;2023-07-31T11:50:41;10.30;;;4.57;;
62554;SDS011;48610;52.144;8.624;2023-07-31T11:53:47;12.10;;;5.63;;
62554;SDS011;48610;52.144;8.624;2023-07-31T11:56:51;16.45;;;5.40;;
62554;SDS011;48610;52.144;8.624;2023-07-31T11:59:51;10.10;;;5.53;;
62554;SDS011;48610;52.144;8.624;2023-07-31T12:02:53;10.95;;;5.18;;
62554;SDS011;48610;52.144;8.624;2023-07-31T12:05:54;11.15;;;4.68;;
62554;SDS011;48610;52.144;8.624;2023-07-31T12:09:00;9.32;;;4.78;;
62554;SDS011;48610;52.144;8.624;2023-07-31T12:12:02;8.30;;;4.65;;
62554;SDS011;48610;52.144;8.624;2023-07-31T12:15:15;11.82;;;4.40;;
62554;SDS011;48610;52.144;8.624;2023-07-31T12:18:18;8.25;;;4.50;;
62554;SDS011;48610;52.144;8.624;2023-07-31T12:21:20;11.98;;;4.40;;
62554;SDS011;48610;52.144;8.624;2023-07-31T12:24:21;9.30;;;4.25;;
62554;SDS011;48610;52.144;8.624;2023-07-31T12:27:21;6.45;;;3.55;;
62554;SDS011;48610;52.144;8.624;2023-07-31T12:30:34;6.65;;;4.03;;
62554;SDS011;48610;52.144;8.624;2023-07-31T12:33:35;7.22;;;4.00;;
62554;SDS011;48610;52.144;8.624;2023-07-31T12:36:37;4.95;;;3.55;;
62554;SDS011;48610;52.144;8.624;2023-07-31T12:39:39;8.40;;;3.90;;
62554;SDS011;48610;52.144;8.624;2023-07-31T12:42:41;7.35;;;4.13;;
62554;SDS011;48610;52.144;8.624;2023-07-31T12:45:41;6.55;;;3.60;;
62554;SDS011;48610;52.144;8.624;2023-07-31T12:48:42;5.72;;;3.50;;
62554;SDS011;48610;52.144;8.624;2023-07-31T12:51:43;6.40;;;3.33;;
62554;SDS011;48610;52.144;8.624;2023-07-31T12:54:43;6.18;;;3.58;;
62554;SDS011;48610;52.144;8.624;2023-07-31T12:57:44;7.47;;;4.10;;
62554;SDS011;48610;52.144;8.624;2023-07-31T13:00:45;9.55;;;5.15;;
62554;SDS011;48610;52.144;8.624;2023-07-31T13:03:45;12.30;;;6.63;;
62554;SDS011;48610;52.144;8.624;2023-07-31T13:06:46;17.73;;;8.57;;
62554;SDS011;48610;52.144;8.624;2023-07-31T13:09:47;22.67;;;8.93;;
62554;SDS011;48610;52.144;8.624;2023-07-31T13:12:48;23.65;;;9.45;;
62554;SDS011;48610;52.144;8.624;2023-07-31T13:15:49;21.73;;;10.82;;
62554;SDS011;48610;52.144;8.624;2023-07-31T13:18:51;30.85;;;12.55;;
62554;SDS011;48610;52.144;8.624;2023-07-31T13:21:53;34.15;;;13.82;;
62554;SDS011;48610;52.144;8.624;2023-07-31T13:24:54;32.58;;;14.55;;
62554;SDS011;48610;52.144;8.624;2023-07-31T13:27:55;36.10;;;16.67;;
62554;SDS011;48610;52.144;8.624;2023-07-31T13:30:55;44.53;;;16.15;;
62554;SDS011;48610;52.144;8.624;2023-07-31T13:33:56;38.47;;;16.88;;
62554;SDS011;48610;52.144;8.624;2023-07-31T13:36:56;34.28;;;16.95;;
62554;SDS011;48610;52.144;8.624;2023-07-31T13:39:57;37.75;;;16.83;;
62554;SDS011;48610;52.144;8.624;2023-07-31T13:42:58;49.58;;;17.17;;
62554;SDS011;48610;52.144;8.624;2023-07-31T13:45:59;36.28;;;15.55;;
62554;SDS011;48610;52.144;8.624;2023-07-31T13:49:08;33.35;;;14.63;;
62554;SDS011;48610;52.144;8.624;2023-07-31T13:52:09;29.02;;;13.43;;
62554;SDS011;48610;52.144;8.624;2023-07-31T13:55:09;33.63;;;14.02;;
62554;SDS011;48610;52.144;8.624;2023-07-31T13:58:10;31.48;;;13.98;;
62554;SDS011;48610;52.144;8.624;2023-07-31T14:01:11;29.20;;;13.32;;
62554;SDS011;48610;52.144;8.624;2023-07-31T14:04:12;26.33;;;13.65;;
62554;SDS011;48610;52.144;8.624;2023-07-31T14:07:12;26.88;;;11.80;;
62554;SDS011;48610;52.144;8.624;2023-07-31T14:10:13;25.55;;;11.77;;
62554;SDS011;48610;52.144;8.624;2023-07-31T14:13:14;22.73;;;11.02;;
62554;SDS011;48610;52.144;8.624;2023-07-31T14:16:15;21.02;;;11.48;;
62554;SDS011;48610;52.144;8.624;2023-07-31T14:19:16;22.33;;;10.93;;
62554;SDS011;48610;52.144;8.624;2023-07-31T14:22:26;27.85;;;11.38;;
62554;SDS011;48610;52.144;8.624;2023-07-31T14:25:28;26.73;;;12.10;;
62554;SDS011;48610;52.144;8.624;2023-07-31T14:28:29;23.40;;;11.43;;
62554;SDS011;48610;52.144;8.624;2023-07-31T14:31:30;24.70;;;12.00;;
62554;SDS011;48610;52.144;8.624;2023-07-31T14:34:32;27.92;;;12.00;;
62554;SDS011;48610;52.144;8.624;2023-07-31T14:37:39;31.33;;;12.13;;
62554;SDS011;48610;52.144;8.624;2023-07-31T14:40:41;20.77;;;11.77;;
62554;SDS011;48610;52.144;8.624;2023-07-31T14:43:42;26.60;;;11.38;;
62554;SDS011;48610;52.144;8.624;2023-07-31T14:46:43;26.48;;;11.63;;
62554;SDS011;48610;52.144;8.624;2023-07-31T14:49:43;31.42;;;11.45;;
62554;SDS011;48610;52.144;8.624;2023-07-31T14:52:44;27.80;;;12.38;;
62554;SDS011;48610;52.144;8.624;2023-07-31T14:55:45;23.00;;;12.30;;
62554;SDS011;48610;52.144;8.624;2023-07-31T14:58:46;32.38;;;12.13;;
62554;SDS011;48610;52.144;8.624;2023-07-31T15:01:47;26.02;;;12.65;;
62554;SDS011;48610;52.144;8.624;2023-07-31T15:04:47;32.42;;;13.80;;
62554;SDS011;48610;52.144;8.624;2023-07-31T15:07:48;28.58;;;12.88;;
62554;SDS011;48610;52.144;8.624;2023-07-31T15:10:49;28.30;;;12.90;;
62554;SDS011;48610;52.144;8.624;2023-07-31T15:13:49;28.02;;;12.43;;
62554;SDS011;48610;52.144;8.624;2023-07-31T15:16:50;26.60;;;12.68;;
62554;SDS011;48610;52.144;8.624;2023-07-31T15:19:51;25.65;;;12.30;;
62554;SDS011;48610;52.144;8.624;2023-07-31T15:22:51;30.58;;;13.15;;
62554;SDS011;48610;52.144;8.624;2023-07-31T15:25:52;26.35;;;12.50;;
62554;SDS011;48610;52.144;8.624;2023-07-31T15:29:00;24.95;;;12.00;;
62554;SDS011;48610;52.144;8.624;2023-07-31T15:32:05;23.83;;;11.80;;
62554;SDS011;48610;52.144;8.624;2023-07-31T15:35:06;22.42;;;11.45;;
62554;SDS011;48610;52.144;8.624;2023-07-31T15:38:07;22.23;;;10.45;;
62554;SDS011;48610;52.144;8.624;2023-07-31T15:41:08;29.33;;;10.13;;
62554;SDS011;48610;52.144;8.624;2023-07-31T15:44:09;22.83;;;9.35;;
62554;SDS011;48610;52.144;8.624;2023-07-31T15:47:10;16.10;;;8.80;;
62554;SDS011;48610;52.144;8.624;2023-07-31T15:50:11;18.33;;;9.27;;
62554;SDS011;48610;52.144;8.624;2023-07-31T15:53:12;24.85;;;10.45;;
62554;SDS011;48610;52.144;8.624;2023-07-31T15:56:12;18.85;;;9.82;;
62554;SDS011;48610;52.144;8.624;2023-07-31T15:59:13;33.65;;;10.68;;
62554;SDS011;48610;52.144;8.624;2023-07-31T16:02:14;20.02;;;9.45;;
62554;SDS011;48610;52.144;8.624;2023-07-31T16:05:14;31.83;;;11.75;;
62554;SDS011;48610;52.144;8.624;2023-07-31T16:08:15;25.15;;;12.95;;
62554;SDS011;48610;52.144;8.624;2023-07-31T16:11:16;27.92;;;12.77;;
62554;SDS011;48610;52.144;8.624;2023-07-31T16:14:16;34.90;;;13.07;;
62554;SDS011;48610;52.144;8.624;2023-07-31T16:17:17;35.92;;;14.07;;
62554;SDS011;48610;52.144;8.624;2023-07-31T16:20:18;30.73;;;14.05;;
62554;SDS011;48610;52.144;8.624;2023-07-31T16:23:19;33.17;;;12.63;;
62554;SDS011;48610;52.144;8.624;2023-07-31T16:26:19;26.45;;;11.80;;
62554;SDS011;48610;52.144;8.624;2023-07-31T16:29:20;34.53;;;11.45;;
62554;SDS011;48610;52.144;8.624;2023-07-31T16:32:21;25.92;;;11.02;;
62554;SDS011;48610;52.144;8.624;2023-07-31T16:35:21;23.73;;;10.48;;
62554;SDS011;48610;52.144;8.624;2023-07-31T16:38:22;23.98;;;10.25;;
62554;SDS011;48610;52.144;8.624;2023-07-31T16:41:22;19.85;;;10.45;;
62554;SDS011;48610;52.144;8.624;2023-07-31T16:44:23;19.10;;;9.45;;
62554;SDS011;48610;52.144;8.624;2023-07-31T16:47:24;17.77;;;9.82;;
62554;SDS011;48610;52.144;8.624;2023-07-31T16:50:24;26.25;;;9.50;;
62554;SDS011;48610;52.144;8.624;2023-07-31T16:53:25;23.27;;;9.70;;
62554;SDS011;48610;52.144;8.624;2023-07-31T16:56:26;21.25;;;8.23;;
62554;SDS011;48610;52.144;8.624;2023-07-31T16:59:27;15.25;;;7.80;;
62554;SDS011;48610;52.144;8.624;2023-07-31T17:02:27;22.35;;;8.18;;
62554;SDS011;48610;52.144;8.624;2023-07-31T17:05:28;24.30;;;7.82;;
62554;SDS011;48610;52.144;8.624;2023-07-31T17:08:29;17.95;;;7.82;;
62554;SDS011;48610;52.144;8.624;2023-07-31T17:11:29;30.17;;;8.43;;
62554;SDS011;48610;52.144;8.624;2023-07-31T17:14:30;19.27;;;8.20;;
62554;SDS011;48610;52.144;8.624;2023-07-31T17:17:31;36.38;;;8.30;;
62554;SDS011;48610;52.144;8.624;2023-07-31T17:20:31;15.48;;;7.50;;
62554;SDS011;48610;52.144;8.624;2023-07-31T17:23:32;26.17;;;7.88;;
62554;SDS011;48610;52.144;8.624;2023-07-31T17:26:33;17.42;;;7.63;;
62554;SDS011;48610;52.144;8.624;2023-07-31T17:29:33;24.90;;;7.95;;
62554;SDS011;48610;52.144;8.624;2023-07-31T17:32:34;25.23;;;9.95;;
62554;SDS011;48610;52.144;8.624;2023-07-31T17:35:35;21.02;;;8.45;;
62554;SDS011;48610;52.144;8.624;2023-07-31T17:38:35;20.27;;;7.78;;
62554;SDS011;48610;52.144;8.624;2023-07-31T17:41:36;24.67;;;8.80;;
62554;SDS011;48610;52.144;8.624;2023-07-31T17:44:37;17.63;;;8.70;;
62554;SDS011;48610;52.144;8.624;2023-07-31T17:47:37;23.65;;;8.55;;
62554;SDS011;48610;52.144;8.624;2023-07-31T17:50:38;21.98;;;9.88;;
62554;SDS011;48610;52.144;8.624;2023-07-31T17:53:39;26.58;;;10.13;;
62554;SDS011;48610;52.144;8.624;2023-07-31T17:56:39;44.40;;;10.02;;
62554;SDS011;48610;52.144;8.624;2023-07-31T17:59:40;36.47;;;9.98;;
62554;SDS011;48610;52.144;8.624;2023-07-31T18:02:43;24.67;;;10.45;;
62554;SDS011;48610;52.144;8.624;2023-07-31T18:05:43;23.08;;;9.00;;